Time;durP1;ratioP1;P1;durP2;ratioP2;P2;SDS_P1;SDS_P2;PMS_P1;PMS_P2;Temp;Humidity;BMP_temperature;BMP_pressure;BME280_temperature;BME280_humidity;BME280_pressure;Samples;Min_cycle;Max_cycle;Signal;HPM_P1;HPM_P2
2024/01/01 00:00:49;;;;;;;21.70;14.77;;;8.70;99.90;;;;;;7397009;19;20510;-75
2024/01/01 00:03:15;;;;;;;25.50;14.83;;;8.70;99.90;;;;;;7395708;19;20126;-76
2024/01/01 00:05:40;;;;;;;20.27;12.90;;;8.70;99.90;;;;;;7393251;19;20153;-76
2024/01/01 00:08:07;;;;;;;21.70;16.23;;;8.80;99.90;;;;;;7393635;19;20134;-75
2024/01/01 00:10:32;;;;;;;19.67;12.17;;;8.80;99.90;;;;;;7394446;19;20143;-76
2024/01/01 00:12:58;;;;;;;43.87;29.33;;;8.70;99.90;;;;;;7394661;19;20150;-75
2024/01/01 00:15:24;;;;;;;44.33;29.90;;;8.80;99.90;;;;;;7394044;19;20150;-75
2024/01/01 00:17:51;;;;;;;25.37;18.80;;;8.90;99.90;;;;;;7395742;19;20209;-75
2024/01/01 00:20:17;;;;;;;17.07;10.33;;;8.90;99.90;;;;;;7392591;19;20207;-76
2024/01/01 00:22:44;;;;;;;21.40;13.70;;;8.80;99.90;;;;;;7394312;19;20134;-76
2024/01/01 00:25:10;;;;;;;31.20;23.60;;;8.70;99.90;;;;;;7391806;19;20146;-76
2024/01/01 00:27:35;;;;;;;19.87;15.87;;;8.70;99.90;;;;;;7394861;19;20139;-75
2024/01/01 00:30:01;;;;;;;6.37;4.50;;;8.60;99.90;;;;;;7393422;19;20142;-77
2024/01/01 00:32:27;;;;;;;4.53;3.57;;;8.50;99.90;;;;;;7394128;19;20163;-76
2024/01/01 00:34:53;;;;;;;5.60;4.00;;;8.30;99.90;;;;;;7393577;19;20206;-75
2024/01/01 00:37:19;;;;;;;3.50;2.03;;;8.40;99.90;;;;;;7394361;19;20174;-76
2024/01/01 00:39:45;;;;;;;3.67;2.23;;;8.30;99.90;;;;;;7392576;19;20139;-76
2024/01/01 00:42:11;;;;;;;4.67;3.17;;;8.30;99.90;;;;;;7395014;19;20151;-77
2024/01/01 00:44:37;;;;;;;4.63;2.90;;;8.40;99.90;;;;;;7394658;19;20145;-77
2024/01/01 00:47:03;;;;;;;5.63;2.90;;;8.50;99.90;;;;;;7396183;19;20150;-76
2024/01/01 00:49:29;;;;;;;2.10;1.80;;;8.40;99.90;;;;;;7394409;19;20150;-76
2024/01/01 00:51:55;;;;;;;3.03;2.37;;;8.30;99.90;;;;;;7394664;19;20187;-76
2024/01/01 00:54:20;;;;;;;2.20;1.57;;;8.50;99.90;;;;;;7391327;19;20222;-77
2024/01/01 00:56:48;;;;;;;4.90;2.23;;;8.50;99.90;;;;;;7394048;19;20659;-77
2024/01/01 00:59:13;;;;;;;2.70;1.47;;;8.50;99.90;;;;;;7394211;19;20533;-76
2024/01/01 01:01:39;;;;;;;4.97;2.57;;;8.70;99.90;;;;;;7396617;19;20131;-77
2024/01/01 01:04:05;;;;;;;2.60;2.17;;;8.80;99.90;;;;;;7391756;19;20150;-76
2024/01/01 01:06:30;;;;;;;4.33;2.30;;;8.90;99.90;;;;;;7392310;19;20210;-77
2024/01/01 01:08:56;;;;;;;3.43;2.00;;;9.00;99.90;;;;;;7393475;19;20565;-76
2024/01/01 01:11:22;;;;;;;3.33;2.27;;;9.00;99.90;;;;;;7393991;19;20159;-76
2024/01/01 01:13:48;;;;;;;2.93;2.10;;;9.00;99.90;;;;;;7394614;19;20608;-76
2024/01/01 01:16:17;;;;;;;4.23;2.40;;;9.00;99.90;;;;;;7392627;19;20544;-77
2024/01/01 01:18:43;;;;;;;4.17;2.63;;;9.00;99.90;;;;;;7392281;19;20150;-76
2024/01/01 01:21:09;;;;;;;4.50;2.57;;;9.00;99.90;;;;;;7395801;19;20142;-75
2024/01/01 01:23:35;;;;;;;2.73;2.40;;;9.00;99.90;;;;;;7394121;19;20169;-76
2024/01/01 01:26:01;;;;;;;4.23;3.07;;;8.90;99.90;;;;;;7392683;19;20176;-75
2024/01/01 01:28:27;;;;;;;5.83;3.23;;;9.00;99.90;;;;;;7392805;19;20217;-75
2024/01/01 01:30:52;;;;;;;4.33;2.43;;;9.10;99.90;;;;;;7394172;19;20138;-76
2024/01/01 01:33:18;;;;;;;5.10;2.83;;;8.80;99.90;;;;;;7391364;19;20154;-76
2024/01/01 01:35:44;;;;;;;3.10;2.43;;;8.80;99.90;;;;;;7393213;19;20468;-76
2024/01/01 01:38:10;;;;;;;4.20;2.37;;;9.00;99.90;;;;;;7392333;19;20150;-76
2024/01/01 01:40:35;;;;;;;6.67;3.10;;;9.00;99.90;;;;;;7392808;19;20145;-77
2024/01/01 01:43:01;;;;;;;3.53;2.70;;;9.00;99.90;;;;;;7393624;19;20139;-76
2024/01/01 01:45:27;;;;;;;3.10;2.60;;;9.00;99.90;;;;;;7394444;19;20146;-77
2024/01/01 01:47:53;;;;;;;3.97;2.77;;;8.80;99.90;;;;;;7391493;19;20142;-77
2024/01/01 01:50:20;;;;;;;3.83;3.20;;;8.70;99.90;;;;;;7393718;19;20220;-77
2024/01/01 01:52:48;;;;;;;3.30;2.77;;;8.80;99.90;;;;;;7392709;19;20138;-77
2024/01/01 01:55:15;;;;;;;2.77;2.27;;;8.90;99.90;;;;;;7394825;19;20138;-77
2024/01/01 01:57:43;;;;;;;4.17;2.97;;;8.70;99.90;;;;;;7391677;19;20237;-76
2024/01/01 02:00:10;;;;;;;7.60;2.97;;;8.70;99.90;;;;;;7393895;19;20145;-76
2024/01/01 02:02:37;;;;;;;5.13;2.27;;;8.70;99.90;;;;;;7393089;19;20206;-77
2024/01/01 02:05:06;;;;;;;3.20;1.73;;;8.80;99.90;;;;;;7390118;19;20170;-76
2024/01/01 02:07:32;;;;;;;3.03;1.70;;;8.80;99.90;;;;;;7390172;19;20154;-76
2024/01/01 02:09:58;;;;;;;1.63;1.13;;;8.90;99.90;;;;;;7390826;19;20137;-77
2024/01/01 02:12:24;;;;;;;1.83;1.73;;;8.90;99.90;;;;;;7392712;19;20163;-77
2024/01/01 02:14:49;;;;;;;3.93;2.30;;;8.90;99.90;;;;;;7391412;19;20147;-77
2024/01/01 02:17:18;;;;;;;1.80;1.40;;;8.70;99.90;;;;;;7392160;19;20150;-75
2024/01/01 02:19:44;;;;;;;2.10;1.87;;;8.80;99.90;;;;;;7391013;19;20143;-75
2024/01/01 02:22:10;;;;;;;2.97;2.00;;;8.70;99.90;;;;;;7391707;19;20147;-76
2024/01/01 02:24:36;;;;;;;1.43;1.30;;;8.60;99.90;;;;;;7390233;19;20233;-76
2024/01/01 02:27:01;;;;;;;10.17;6.00;;;8.50;99.90;;;;;;7390111;19;20202;-75
2024/01/01 02:29:27;;;;;;;3.33;1.80;;;8.50;99.90;;;;;;7389699;19;20226;-75
2024/01/01 02:31:53;;;;;;;2.73;1.37;;;8.60;99.90;;;;;;7390803;19;20135;-76
2024/01/01 02:34:19;;;;;;;1.40;1.27;;;8.60;99.90;;;;;;7392704;19;20136;-77
2024/01/01 02:36:45;;;;;;;2.37;1.43;;;8.70;99.90;;;;;;7392698;19;20153;-77
2024/01/01 02:39:11;;;;;;;1.33;1.23;;;8.50;99.90;;;;;;7392806;19;20143;-75
2024/01/01 02:41:37;;;;;;;2.27;1.40;;;8.60;99.90;;;;;;7386884;19;20164;-76
2024/01/01 02:44:04;;;;;;;1.37;1.10;;;8.50;99.90;;;;;;7393010;19;20130;-76
2024/01/01 02:46:30;;;;;;;1.60;1.37;;;8.60;99.90;;;;;;7390561;19;20800;-76
2024/01/01 02:48:55;;;;;;;1.80;1.40;;;8.70;99.90;;;;;;7389791;19;20134;-76
2024/01/01 02:51:21;;;;;;;1.37;0.80;;;8.70;99.90;;;;;;7391970;19;20134;-76
2024/01/01 02:53:47;;;;;;;2.13;1.17;;;8.70;99.90;;;;;;7386692;19;20131;-75
2024/01/01 02:56:21;;;;;;;1.67;1.20;;;8.70;99.90;;;;;;7390063;19;20130;-75
2024/01/01 02:58:47;;;;;;;1.30;1.10;;;8.90;99.90;;;;;;7390055;19;20134;-76
2024/01/01 03:01:13;;;;;;;1.27;0.97;;;8.80;99.90;;;;;;7389777;19;20151;-77
2024/01/01 03:03:39;;;;;;;2.03;1.10;;;8.80;99.90;;;;;;7389502;19;20151;-77
2024/01/01 03:06:08;;;;;;;1.00;1.00;;;8.60;99.90;;;;;;7390348;19;20182;-77
2024/01/01 03:08:38;;;;;;;3.47;1.17;;;8.70;99.90;;;;;;7389550;19;20155;-76
2024/01/01 03:11:07;;;;;;;0.97;0.90;;;8.70;99.90;;;;;;7390326;19;20146;-76
2024/01/01 03:13:33;;;;;;;2.90;1.07;;;8.70;99.90;;;;;;7389499;19;20202;-77
2024/01/01 03:16:00;;;;;;;1.23;1.07;;;8.70;99.90;;;;;;7390944;19;20155;-76
2024/01/01 03:18:25;;;;;;;2.63;1.23;;;8.70;99.90;;;;;;7395558;19;20141;-76
2024/01/01 03:20:51;;;;;;;1.10;0.97;;;8.80;99.90;;;;;;7393285;19;20213;-78
2024/01/01 03:23:17;;;;;;;1.30;1.20;;;8.80;99.90;;;;;;7398543;19;20142;-77
2024/01/01 03:25:43;;;;;;;2.07;1.67;;;8.80;99.90;;;;;;7397002;19;20151;-76
2024/01/01 03:28:09;;;;;;;1.17;1.00;;;8.80;99.90;;;;;;7396606;19;20251;-77
2024/01/01 03:30:35;;;;;;;3.07;1.40;;;8.80;99.90;;;;;;7398697;19;20174;-77
2024/01/01 03:33:02;;;;;;;1.33;1.23;;;8.90;99.90;;;;;;7396412;19;20142;-77
2024/01/01 03:35:31;;;;;;;1.33;1.00;;;8.90;99.90;;;;;;7396675;19;20151;-77
2024/01/01 03:38:03;;;;;;;1.07;0.93;;;8.90;99.90;;;;;;7399113;19;20145;-76
2024/01/01 03:40:30;;;;;;;1.27;1.13;;;8.90;99.90;;;;;;7398112;19;20138;-76
2024/01/01 03:42:56;;;;;;;1.43;0.90;;;8.90;99.90;;;;;;7395525;19;20138;-76
2024/01/01 03:45:22;;;;;;;1.73;1.37;;;8.90;99.90;;;;;;7395005;19;20122;-75
2024/01/01 03:47:47;;;;;;;1.80;1.23;;;8.90;99.90;;;;;;7397770;19;20146;-76
2024/01/01 03:50:16;;;;;;;1.53;1.20;;;8.90;99.90;;;;;;7394681;19;20146;-76
2024/01/01 03:52:42;;;;;;;1.33;1.20;;;8.80;99.90;;;;;;7396210;19;20160;-77
2024/01/01 03:55:08;;;;;;;1.80;1.57;;;8.90;99.90;;;;;;7398990;19;20131;-76
2024/01/01 03:57:33;;;;;;;1.77;1.10;;;8.80;99.90;;;;;;7396611;19;20588;-76
2024/01/01 04:00:00;;;;;;;1.60;1.23;;;8.70;99.90;;;;;;7395451;19;20131;-76
2024/01/01 04:02:26;;;;;;;1.20;1.00;;;8.90;99.90;;;;;;7395994;19;20126;-77
2024/01/01 04:04:51;;;;;;;1.60;1.33;;;8.90;99.90;;;;;;7395945;19;20213;-76
2024/01/01 04:07:17;;;;;;;0.80;0.80;;;8.90;99.90;;;;;;7397482;19;20522;-76
2024/01/01 04:09:44;;;;;;;1.43;0.80;;;8.90;99.90;;;;;;7397376;19;20131;-76
2024/01/01 04:12:09;;;;;;;1.67;1.10;;;8.90;99.90;;;;;;7394915;19;20623;-76
2024/01/01 04:14:36;;;;;;;1.17;0.73;;;8.90;99.90;;;;;;7397568;19;20198;-76
2024/01/01 04:17:03;;;;;;;0.60;0.60;;;8.90;99.90;;;;;;7396395;19;20815;-77
2024/01/01 04:19:29;;;;;;;2.30;0.90;;;8.80;99.90;;;;;;7396555;19;20139;-76
2024/01/01 04:21:55;;;;;;;1.60;1.33;;;8.80;99.90;;;;;;7396637;19;20498;-76
2024/01/01 04:24:21;;;;;;;1.03;0.60;;;8.70;99.90;;;;;;7394999;19;20198;-76
2024/01/01 04:26:47;;;;;;;1.77;0.97;;;8.80;99.90;;;;;;7394585;19;20161;-76
2024/01/01 04:29:14;;;;;;;1.30;1.20;;;8.80;99.90;;;;;;7395580;19;20138;-76
2024/01/01 04:31:40;;;;;;;2.20;1.73;;;8.80;99.90;;;;;;7397182;19;20528;-76
2024/01/01 04:34:06;;;;;;;0.70;0.70;;;8.70;99.90;;;;;;7397092;19;20158;-76
2024/01/01 04:36:32;;;;;;;0.60;0.57;;;8.70;99.90;;;;;;7394725;19;20230;-76
2024/01/01 04:38:59;;;;;;;1.00;0.90;;;8.70;99.90;;;;;;7394681;19;20166;-76
2024/01/01 04:41:25;;;;;;;0.80;0.60;;;8.70;99.90;;;;;;7394971;19;20131;-76
2024/01/01 04:43:51;;;;;;;1.00;0.53;;;8.50;99.90;;;;;;7395798;19;20222;-76
2024/01/01 04:46:16;;;;;;;1.17;0.67;;;8.50;99.90;;;;;;7392569;19;20142;-76
2024/01/01 04:48:42;;;;;;;0.50;0.50;;;8.40;99.90;;;;;;7396521;19;20146;-75
2024/01/01 04:51:08;;;;;;;0.30;0.30;;;8.50;99.90;;;;;;7395032;19;20994;-76
2024/01/01 04:53:34;;;;;;;1.00;0.60;;;8.50;99.90;;;;;;7395631;19;20616;-76
2024/01/01 04:55:59;;;;;;;2.10;0.80;;;8.50;99.90;;;;;;7396116;19;20488;-76
2024/01/01 04:58:25;;;;;;;0.70;0.60;;;8.60;99.90;;;;;;7394111;19;20138;-77
2024/01/01 05:00:51;;;;;;;0.83;0.83;;;8.60;99.90;;;;;;7396066;19;20139;-77
2024/01/01 05:03:17;;;;;;;0.27;0.27;;;8.60;99.90;;;;;;7393603;19;20135;-76
2024/01/01 05:05:42;;;;;;;0.30;0.30;;;8.50;99.90;;;;;;7391466;19;20178;-77
2024/01/01 05:08:08;;;;;;;0.53;0.40;;;8.50;99.90;;;;;;7393492;19;20527;-77
2024/01/01 05:10:34;;;;;;;0.53;0.40;;;8.40;99.90;;;;;;7395074;19;20198;-76
2024/01/01 05:13:00;;;;;;;0.70;0.60;;;8.30;99.90;;;;;;7393496;19;20167;-78
2024/01/01 05:15:26;;;;;;;0.40;0.40;;;8.20;99.90;;;;;;7393737;19;20130;-77
2024/01/01 05:17:52;;;;;;;0.43;0.40;;;8.10;99.90;;;;;;7392392;19;20505;-76
2024/01/01 05:20:17;;;;;;;2.70;0.77;;;8.20;99.90;;;;;;7392113;19;20127;-77
2024/01/01 05:22:43;;;;;;;0.47;0.40;;;8.20;99.90;;;;;;7393662;19;20468;-77
2024/01/01 05:25:09;;;;;;;0.40;0.40;;;8.20;99.90;;;;;;7392025;19;20214;-75
2024/01/01 05:27:35;;;;;;;1.40;0.73;;;8.10;99.90;;;;;;7391584;19;20146;-77
2024/01/01 05:30:04;;;;;;;0.37;0.30;;;7.90;99.90;;;;;;7392936;19;20129;-76
2024/01/01 05:32:31;;;;;;;0.20;0.20;;;7.90;99.90;;;;;;7393953;19;20143;-77
2024/01/01 05:34:57;;;;;;;0.20;0.20;;;8.00;99.90;;;;;;7394055;19;20633;-77
2024/01/01 05:37:22;;;;;;;0.30;0.30;;;8.10;99.90;;;;;;7396213;19;20131;-76
2024/01/01 05:39:48;;;;;;;0.40;0.40;;;8.20;99.90;;;;;;7390326;19;20129;-76
2024/01/01 05:42:14;;;;;;;0.73;0.73;;;8.40;99.90;;;;;;7392557;19;20235;-76
2024/01/01 05:44:40;;;;;;;0.40;0.30;;;8.50;99.90;;;;;;7391592;19;20495;-77
2024/01/01 05:47:05;;;;;;;0.27;0.27;;;8.50;99.90;;;;;;7392911;19;20130;-76
2024/01/01 05:49:31;;;;;;;0.67;0.67;;;8.50;99.90;;;;;;7392881;19;20141;-76
2024/01/01 05:51:57;;;;;;;0.30;0.20;;;8.50;99.90;;;;;;7392969;19;20227;-76
2024/01/01 05:54:23;;;;;;;0.20;0.20;;;8.30;99.90;;;;;;7392297;19;20225;-75
2024/01/01 05:56:49;;;;;;;0.40;0.40;;;8.20;99.90;;;;;;7392685;19;20142;-76
2024/01/01 05:59:14;;;;;;;0.20;0.20;;;8.30;99.90;;;;;;7392116;19;20135;-76
2024/01/01 06:01:40;;;;;;;1.30;0.73;;;8.20;99.90;;;;;;7391049;19;20139;-77
2024/01/01 06:04:06;;;;;;;0.10;0.10;;;8.10;99.90;;;;;;7392035;19;20530;-76
2024/01/01 06:06:31;;;;;;;1.10;0.50;;;8.00;99.90;;;;;;7389691;19;20596;-76
2024/01/01 06:08:57;;;;;;;0.40;0.40;;;7.90;99.90;;;;;;7392372;19;20135;-76
2024/01/01 06:11:23;;;;;;;0.50;0.50;;;7.90;99.90;;;;;;7393629;19;20601;-76
2024/01/01 06:13:49;;;;;;;0.30;0.30;;;8.00;99.90;;;;;;7393825;19;20154;-76
2024/01/01 06:16:15;;;;;;;0.37;0.30;;;7.90;99.90;;;;;;7390799;19;20562;-76
2024/01/01 06:18:42;;;;;;;0.30;0.30;;;8.00;99.90;;;;;;7392725;19;20168;-75
2024/01/01 06:21:08;;;;;;;1.23;0.93;;;8.00;99.90;;;;;;7391283;19;20135;-76
2024/01/01 06:23:33;;;;;;;0.63;0.63;;;8.00;99.90;;;;;;7393058;19;20149;-76
2024/01/01 06:26:00;;;;;;;0.50;0.50;;;8.10;99.90;;;;;;7388844;19;20139;-76
2024/01/01 06:28:26;;;;;;;0.20;0.20;;;8.20;99.90;;;;;;7389881;19;20173;-78
2024/01/01 06:30:52;;;;;;;1.00;0.30;;;8.10;99.90;;;;;;7391932;19;20142;-77
2024/01/01 06:33:18;;;;;;;0.30;0.30;;;8.10;99.90;;;;;;7393997;19;20154;-76
2024/01/01 06:35:44;;;;;;;1.03;0.60;;;8.30;99.90;;;;;;7392118;19;20573;-74
2024/01/01 06:38:11;;;;;;;0.53;0.40;;;8.30;99.90;;;;;;7389944;19;20154;-75
2024/01/01 06:40:37;;;;;;;0.40;0.40;;;8.30;99.90;;;;;;7391270;19;20134;-76
2024/01/01 06:43:03;;;;;;;0.80;0.60;;;8.10;99.90;;;;;;7391011;19;20143;-77
2024/01/01 06:45:28;;;;;;;0.33;0.33;;;7.90;99.90;;;;;;7388882;19;20580;-76
2024/01/01 06:47:54;;;;;;;1.43;0.67;;;7.80;99.90;;;;;;7392384;19;20134;-76
2024/01/01 06:50:20;;;;;;;0.40;0.30;;;7.70;99.90;;;;;;7391787;19;20582;-75
2024/01/01 06:52:46;;;;;;;0.50;0.33;;;7.70;99.90;;;;;;7397923;19;20463;-77
2024/01/01 06:55:11;;;;;;;0.20;0.20;;;7.70;99.90;;;;;;7397765;19;20127;-77
2024/01/01 06:57:38;;;;;;;0.20;0.20;;;7.90;99.90;;;;;;7398417;19;20127;-76
2024/01/01 07:00:04;;;;;;;0.20;0.20;;;7.90;99.90;;;;;;7398936;19;20131;-76
2024/01/01 07:02:30;;;;;;;1.60;0.77;;;7.90;99.90;;;;;;7396886;19;20163;-76
2024/01/01 07:04:56;;;;;;;1.70;0.50;;;8.00;99.90;;;;;;7395311;19;20638;-76
2024/01/01 07:07:21;;;;;;;0.67;0.23;;;8.10;99.90;;;;;;7396723;19;20131;-76
2024/01/01 07:09:47;;;;;;;0.40;0.20;;;8.10;99.90;;;;;;7397295;19;20139;-77
2024/01/01 07:12:23;;;;;;;1.20;0.40;;;8.10;99.90;;;;;;7397499;19;20127;-76
2024/01/01 07:14:49;;;;;;;0.20;0.20;;;8.00;99.90;;;;;;7397337;19;20164;-76
2024/01/01 07:17:16;;;;;;;0.57;0.57;;;8.00;99.90;;;;;;7397431;19;20137;-76
2024/01/01 07:19:42;;;;;;;1.20;0.40;;;8.00;99.90;;;;;;7396988;19;20158;-75
2024/01/01 07:22:09;;;;;;;0.30;0.30;;;8.00;99.90;;;;;;7397222;19;20149;-74
2024/01/01 07:24:34;;;;;;;0.40;0.40;;;8.00;99.90;;;;;;7397573;19;20210;-75
2024/01/01 07:27:00;;;;;;;0.23;0.23;;;7.90;99.90;;;;;;7397005;19;20561;-75
2024/01/01 07:29:27;;;;;;;0.50;0.37;;;8.00;99.90;;;;;;7395157;19;20131;-74
2024/01/01 07:31:53;;;;;;;0.30;0.30;;;8.00;99.90;;;;;;7398812;19;20131;-74
2024/01/01 07:34:20;;;;;;;0.30;0.30;;;7.90;99.90;;;;;;7397579;19;20134;-74
2024/01/01 07:36:46;;;;;;;1.23;1.13;;;7.80;99.90;;;;;;7396016;19;20146;-75
2024/01/01 07:39:12;;;;;;;0.40;0.40;;;7.90;99.90;;;;;;7395954;19;20631;-76
2024/01/01 07:41:40;;;;;;;0.20;0.20;;;8.00;99.90;;;;;;7396518;19;20131;-75
2024/01/01 07:44:07;;;;;;;0.20;0.20;;;8.00;99.90;;;;;;7394211;19;20130;-75
2024/01/01 07:46:33;;;;;;;0.30;0.30;;;8.00;99.90;;;;;;7394622;19;20222;-77
2024/01/01 07:49:02;;;;;;;1.60;0.50;;;8.10;99.90;;;;;;7396355;19;20138;-76
2024/01/01 07:51:27;;;;;;;0.50;0.50;;;8.00;99.90;;;;;;7395829;19;20243;-74
2024/01/01 07:53:53;;;;;;;0.20;0.13;;;8.20;99.90;;;;;;7395893;19;20162;-74
2024/01/01 07:56:19;;;;;;;1.17;0.70;;;8.10;99.90;;;;;;7397150;19;20209;-74
2024/01/01 07:58:48;;;;;;;0.20;0.20;;;8.00;99.90;;;;;;7398057;19;20218;-74
2024/01/01 08:01:16;;;;;;;0.30;0.30;;;8.20;99.90;;;;;;7394571;19;20163;-75
2024/01/01 08:03:42;;;;;;;0.20;0.20;;;8.00;99.90;;;;;;7394042;19;20206;-74
2024/01/01 08:06:08;;;;;;;0.20;0.20;;;8.10;99.90;;;;;;7394820;19;20154;-75
2024/01/01 08:08:34;;;;;;;0.87;0.30;;;8.00;99.90;;;;;;7393625;19;20142;-74
2024/01/01 08:10:59;;;;;;;1.40;0.37;;;8.20;99.90;;;;;;7394271;19;20138;-74
2024/01/01 08:13:25;;;;;;;0.30;0.30;;;8.30;99.90;;;;;;7396722;19;20150;-75
2024/01/01 08:15:51;;;;;;;0.30;0.30;;;8.40;99.90;;;;;;7394971;19;20131;-75
2024/01/01 08:18:17;;;;;;;0.40;0.40;;;8.30;99.90;;;;;;7394355;19;20145;-75
2024/01/01 08:20:43;;;;;;;0.40;0.30;;;8.30;99.90;;;;;;7395045;19;20158;-74
2024/01/01 08:23:09;;;;;;;0.13;0.13;;;8.30;99.90;;;;;;7394591;19;20141;-74
2024/01/01 08:25:35;;;;;;;0.20;0.20;;;8.30;99.90;;;;;;7394612;19;20163;-76
2024/01/01 08:28:01;;;;;;;0.33;0.33;;;8.30;99.90;;;;;;7394413;19;20146;-74
2024/01/01 08:30:27;;;;;;;0.20;0.20;;;8.50;99.90;;;;;;7396063;19;20135;-74
2024/01/01 08:32:53;;;;;;;0.60;0.27;;;8.50;99.90;;;;;;7396834;19;20155;-74
2024/01/01 08:35:19;;;;;;;0.40;0.40;;;8.50;99.90;;;;;;7394524;19;20130;-74
2024/01/01 08:37:44;;;;;;;0.23;0.23;;;8.50;99.90;;;;;;7395107;19;20479;-74
2024/01/01 08:40:11;;;;;;;0.20;0.20;;;8.30;99.90;;;;;;7394694;19;20135;-74
2024/01/01 08:42:37;;;;;;;0.20;0.20;;;8.30;99.90;;;;;;7394204;19;20138;-74
2024/01/01 08:45:03;;;;;;;0.20;0.20;;;8.40;99.90;;;;;;7393510;19;20135;-73
2024/01/01 08:47:29;;;;;;;0.40;0.40;;;8.50;99.90;;;;;;7394086;19;20142;-76
2024/01/01 08:49:55;;;;;;;0.30;0.30;;;8.50;99.90;;;;;;7394926;19;20142;-74
2024/01/01 08:52:21;;;;;;;0.70;0.37;;;8.30;99.90;;;;;;7394307;19;20473;-74
2024/01/01 08:54:48;;;;;;;0.60;0.60;;;8.40;99.90;;;;;;7392360;19;20142;-76
2024/01/01 08:57:15;;;;;;;1.00;0.20;;;8.50;99.90;;;;;;7392418;19;20173;-75
2024/01/01 08:59:41;;;;;;;0.30;0.30;;;8.60;99.90;;;;;;7394674;19;20130;-75
2024/01/01 09:02:08;;;;;;;0.20;0.20;;;8.60;99.90;;;;;;7392632;19;20163;-74
2024/01/01 09:04:34;;;;;;;0.40;0.40;;;8.70;99.90;;;;;;7389633;19;20678;-73
2024/01/01 09:07:04;;;;;;;0.20;0.20;;;8.70;99.90;;;;;;7392352;19;20151;-74
2024/01/01 09:09:30;;;;;;;0.50;0.50;;;8.60;99.90;;;;;;7392160;19;20146;-75
2024/01/01 09:11:56;;;;;;;0.53;0.30;;;8.60;99.90;;;;;;7391929;19;20135;-75
2024/01/01 09:14:22;;;;;;;2.20;0.80;;;8.80;99.90;;;;;;7391636;19;20143;-75
2024/01/01 09:16:48;;;;;;;1.53;0.67;;;8.70;99.90;;;;;;7389741;19;20135;-75
2024/01/01 09:19:17;;;;;;;0.37;0.37;;;8.80;99.90;;;;;;7392586;19;20510;-76
2024/01/01 09:21:44;;;;;;;0.17;0.17;;;8.80;99.90;;;;;;7394726;19;20139;-75
2024/01/01 09:24:09;;;;;;;0.33;0.20;;;8.90;99.90;;;;;;7391959;19;20134;-74
2024/01/01 09:26:37;;;;;;;0.40;0.33;;;8.80;99.90;;;;;;7390678;19;20147;-75
2024/01/01 09:29:04;;;;;;;0.37;0.33;;;8.90;99.90;;;;;;7390740;19;20150;-74
2024/01/01 09:31:31;;;;;;;0.40;0.30;;;8.80;99.90;;;;;;7391359;19;20636;-76
2024/01/01 09:34:00;;;;;;;1.03;0.40;;;9.00;99.90;;;;;;7392722;19;20552;-74
2024/01/01 09:36:32;;;;;;;0.30;0.30;;;9.20;99.90;;;;;;7391752;19;20160;-75
2024/01/01 09:38:58;;;;;;;0.20;0.20;;;9.20;99.90;;;;;;7390707;19;20158;-76
2024/01/01 09:41:25;;;;;;;0.30;0.30;;;9.10;99.90;;;;;;7392079;19;20138;-74
2024/01/01 09:43:55;;;;;;;0.40;0.30;;;9.30;99.90;;;;;;7393265;19;20131;-75
2024/01/01 09:46:23;;;;;;;0.30;0.30;;;9.40;99.90;;;;;;7391147;19;20150;-73
2024/01/01 09:48:49;;;;;;;0.30;0.30;;;9.30;99.90;;;;;;7389592;19;20152;-73
2024/01/01 09:51:15;;;;;;;1.40;0.87;;;9.20;99.90;;;;;;7391454;19;20251;-74
2024/01/01 09:53:44;;;;;;;0.37;0.37;;;9.40;99.90;;;;;;7390127;19;20153;-73
2024/01/01 09:56:09;;;;;;;0.27;0.27;;;9.60;99.90;;;;;;7393259;19;20131;-75
2024/01/01 09:58:42;;;;;;;0.50;0.50;;;9.40;99.90;;;;;;7383059;19;20148;-76
2024/01/01 10:01:12;;;;;;;0.30;0.30;;;9.20;99.90;;;;;;7386430;19;20224;-73
2024/01/01 10:03:41;;;;;;;0.20;0.20;;;9.20;99.90;;;;;;7387643;19;20147;-72
2024/01/01 10:06:09;;;;;;;0.73;0.40;;;9.30;99.90;;;;;;7387230;19;20147;-73
2024/01/01 10:08:35;;;;;;;0.37;0.30;;;9.20;99.90;;;;;;7384079;19;20587;-73
2024/01/01 10:11:20;;;;;;;0.20;0.20;;;9.40;99.90;;;;;;7383630;19;20158;-72
2024/01/01 10:13:46;;;;;;;0.77;0.50;;;9.50;99.90;;;;;;7388926;19;20156;-72
2024/01/01 10:16:28;;;;;;;0.20;0.20;;;9.60;99.90;;;;;;7391796;19;20148;-73
2024/01/01 10:18:56;;;;;;;0.70;0.57;;;9.60;99.90;;;;;;7387122;19;20127;-71
2024/01/01 10:21:28;;;;;;;0.27;0.27;;;9.60;99.90;;;;;;7392159;19;20151;-72
2024/01/01 10:23:58;;;;;;;1.70;0.93;;;9.20;99.90;;;;;;7391431;19;20134;-72
2024/01/01 10:26:24;;;;;;;0.20;0.20;;;9.40;99.90;;;;;;7387162;19;20136;-71
2024/01/01 10:28:50;;;;;;;0.10;0.10;;;9.50;99.90;;;;;;7389379;19;20146;-71
2024/01/01 10:31:16;;;;;;;0.10;0.10;;;9.50;99.90;;;;;;7388520;19;20627;-72
2024/01/01 10:33:42;;;;;;;0.53;0.40;;;9.70;99.90;;;;;;7385256;19;20150;-70
2024/01/01 10:36:08;;;;;;;0.20;0.20;;;9.80;99.90;;;;;;7388774;19;20139;-71
2024/01/01 10:38:39;;;;;;;0.30;0.30;;;9.70;99.90;;;;;;7381975;19;20551;-72
2024/01/01 10:41:17;;;;;;;0.40;0.37;;;9.80;99.90;;;;;;7387769;19;20543;-71
2024/01/01 10:43:45;;;;;;;0.30;0.30;;;9.60;99.90;;;;;;7390987;19;20125;-73
2024/01/01 10:46:12;;;;;;;0.30;0.30;;;9.90;99.90;;;;;;7384979;19;20155;-73
2024/01/01 10:48:41;;;;;;;0.37;0.37;;;9.80;99.90;;;;;;7385780;19;20146;-72
2024/01/01 10:51:28;;;;;;;1.97;0.40;;;9.60;99.90;;;;;;7386980;19;20145;-73
2024/01/01 10:54:28;;;;;;;1.33;0.63;;;9.80;99.90;;;;;;7387121;19;20162;-73
2024/01/01 10:57:26;;;;;;;0.50;0.33;;;9.70;99.90;;;;;;7389110;19;20190;-73
2024/01/01 11:00:00;;;;;;;1.67;0.73;;;9.70;99.90;;;;;;7387731;19;20850;-72
2024/01/01 11:02:27;;;;;;;1.37;0.77;;;9.70;99.90;;;;;;7386651;19;20146;-72
2024/01/01 11:05:07;;;;;;;0.77;0.73;;;9.70;99.90;;;;;;7384288;19;20194;-71
2024/01/01 11:07:52;;;;;;;2.03;0.80;;;9.80;99.90;;;;;;7391266;19;20660;-73
2024/01/01 11:10:37;;;;;;;0.20;0.20;;;9.80;99.90;;;;;;7386446;19;20140;-75
2024/01/01 11:13:09;;;;;;;0.57;0.20;;;9.80;99.90;;;;;;7389125;19;20148;-71
2024/01/01 11:15:47;;;;;;;0.40;0.30;;;9.80;99.90;;;;;;7385999;19;20218;-72
2024/01/01 11:18:15;;;;;;;1.47;0.70;;;10.00;99.90;;;;;;7383729;19;20183;-70
2024/01/01 11:20:48;;;;;;;0.23;0.23;;;9.90;99.90;;;;;;7388016;19;20143;-73
2024/01/01 11:23:40;;;;;;;0.30;0.30;;;9.90;99.90;;;;;;7388269;19;20151;-72
2024/01/01 11:26:32;;;;;;;1.07;0.27;;;9.80;99.90;;;;;;7384468;19;20171;-71
2024/01/01 11:29:23;;;;;;;2.80;0.70;;;9.90;99.90;;;;;;7381664;19;20214;-73
2024/01/01 11:32:03;;;;;;;0.40;0.40;;;10.00;99.90;;;;;;7382292;19;20142;-72
2024/01/01 11:34:28;;;;;;;0.50;0.50;;;10.10;99.90;;;;;;7385595;19;21839;-73
2024/01/01 11:36:54;;;;;;;0.40;0.40;;;10.30;99.90;;;;;;7385819;19;20166;-72
2024/01/01 11:39:24;;;;;;;0.20;0.20;;;10.20;99.90;;;;;;7390608;19;20788;-73
2024/01/01 11:41:50;;;;;;;1.03;0.57;;;10.10;99.90;;;;;;7393457;19;20194;-72
2024/01/01 11:44:23;;;;;;;0.20;0.20;;;10.10;99.90;;;;;;7395794;19;20152;-72
2024/01/01 11:46:49;;;;;;;2.03;0.80;;;10.10;99.90;;;;;;7392304;19;20155;-71
2024/01/01 11:49:15;;;;;;;0.30;0.30;;;10.20;99.90;;;;;;7393477;19;20142;-71
2024/01/01 11:51:54;;;;;;;0.73;0.37;;;10.10;99.90;;;;;;7394949;19;20507;-72
2024/01/01 11:54:20;;;;;;;0.53;0.50;;;10.10;99.90;;;;;;7393827;19;20147;-71
2024/01/01 11:56:48;;;;;;;0.47;0.40;;;10.10;99.90;;;;;;7393469;19;20146;-72
2024/01/01 11:59:16;;;;;;;0.60;0.43;;;10.00;99.90;;;;;;7391947;19;20155;-72
2024/01/01 12:01:44;;;;;;;0.30;0.30;;;10.10;99.90;;;;;;7393201;19;20135;-73
2024/01/01 12:04:10;;;;;;;1.27;0.30;;;10.00;99.90;;;;;;7391614;19;20180;-71
2024/01/01 12:06:36;;;;;;;0.33;0.33;;;9.90;99.90;;;;;;7389786;19;20143;-72
2024/01/01 12:09:04;;;;;;;2.20;1.20;;;10.00;99.90;;;;;;7393730;19;20493;-71
2024/01/01 12:11:30;;;;;;;0.50;0.43;;;10.10;99.90;;;;;;7391019;19;20621;-72
2024/01/01 12:13:57;;;;;;;0.70;0.70;;;10.20;99.90;;;;;;7393126;19;20335;-71
2024/01/01 12:16:23;;;;;;;2.40;1.30;;;10.20;99.90;;;;;;7393172;19;20457;-72
2024/01/01 12:19:04;;;;;;;4.77;1.77;;;10.30;99.90;;;;;;7391986;19;20153;-73
2024/01/01 12:21:42;;;;;;;1.20;0.70;;;10.30;99.90;;;;;;7387216;19;20214;-73
2024/01/01 12:24:14;;;;;;;0.70;0.70;;;10.30;99.90;;;;;;7394582;19;20150;-71
2024/01/01 12:26:40;;;;;;;0.63;0.63;;;10.10;99.90;;;;;;7393206;19;20173;-71
2024/01/01 12:29:10;;;;;;;0.23;0.23;;;10.10;99.90;;;;;;7390962;19;20135;-72
2024/01/01 12:31:37;;;;;;;0.77;0.57;;;10.00;99.90;;;;;;7393675;19;20138;-72
2024/01/01 12:34:05;;;;;;;2.10;0.93;;;10.00;99.90;;;;;;7392435;19;20476;-72
2024/01/01 12:36:30;;;;;;;2.63;1.97;;;10.00;99.90;;;;;;7391295;19;20187;-73
2024/01/01 12:38:56;;;;;;;2.77;0.60;;;10.10;99.90;;;;;;7393917;19;20143;-73
2024/01/01 12:41:22;;;;;;;1.03;0.40;;;10.40;99.90;;;;;;7392160;19;20183;-72
2024/01/01 12:43:48;;;;;;;6.50;2.63;;;10.50;99.90;;;;;;7389916;19;20162;-72
2024/01/01 12:46:13;;;;;;;0.63;0.43;;;10.80;99.90;;;;;;7388796;19;20143;-76
2024/01/01 12:48:46;;;;;;;0.43;0.40;;;10.70;99.90;;;;;;7391512;19;20135;-72
2024/01/01 12:51:22;;;;;;;1.93;1.00;;;10.70;99.90;;;;;;7387956;19;20236;-73
2024/01/01 12:53:48;;;;;;;0.87;0.43;;;10.80;99.90;;;;;;7393679;19;20713;-73
2024/01/01 12:56:14;;;;;;;0.50;0.50;;;10.60;99.90;;;;;;7394624;19;20145;-75